sensor_id;sensor_type;location;lat;lon;timestamp;P1;durP1;ratioP1;P2;durP2;ratioP2
68657;SDS011;55639;53.480;-2.228;2022-07-25T00:01:42;1.08;;;0.73;;
68657;SDS011;55639;53.480;-2.228;2022-07-25T00:04:08;0.98;;;0.88;;
68657;SDS011;55639;53.480;-2.228;2022-07-25T00:06:35;1.23;;;0.90;;
68657;SDS011;55639;53.480;-2.228;2022-07-25T00:09:04;1.58;;;0.80;;
68657;SDS011;55639;53.480;-2.228;2022-07-25T00:11:30;1.13;;;0.77;;
68657;SDS011;55639;53.480;-2.228;2022-07-25T00:13:56;0.98;;;0.80;;
68657;SDS011;55639;53.480;-2.228;2022-07-25T00:16:21;1.63;;;0.90;;
68657;SDS011;55639;53.480;-2.228;2022-07-25T00:18:47;1.23;;;0.82;;
68657;SDS011;55639;53.480;-2.228;2022-07-25T00:21:13;0.90;;;0.73;;
68657;SDS011;55639;53.480;-2.228;2022-07-25T00:23:38;1.10;;;0.80;;
68657;SDS011;55639;53.480;-2.228;2022-07-25T00:26:04;0.70;;;0.70;;
68657;SDS011;55639;53.480;-2.228;2022-07-25T00:28:30;0.85;;;0.70;;
68657;SDS011;55639;53.480;-2.228;2022-07-25T00:30:57;0.85;;;0.73;;
68657;SDS011;55639;53.480;-2.228;2022-07-25T00:33:22;0.95;;;0.80;;
68657;SDS011;55639;53.480;-2.228;2022-07-25T00:35:48;1.98;;;0.75;;
68657;SDS011;55639;53.480;-2.228;2022-07-25T00:38:14;0.80;;;0.80;;
68657;SDS011;55639;53.480;-2.228;2022-07-25T00:40:39;1.08;;;0.82;;
68657;SDS011;55639;53.480;-2.228;2022-07-25T00:43:05;0.77;;;0.77;;
68657;SDS011;55639;53.480;-2.228;2022-07-25T00:45:31;0.73;;;0.73;;
68657;SDS011;55639;53.480;-2.228;2022-07-25T00:47:57;0.95;;;0.88;;
68657;SDS011;55639;53.480;-2.228;2022-07-25T00:50:22;1.38;;;0.88;;
68657;SDS011;55639;53.480;-2.228;2022-07-25T00:52:48;1.15;;;0.90;;
68657;SDS011;55639;53.480;-2.228;2022-07-25T00:55:14;1.48;;;0.90;;
68657;SDS011;55639;53.480;-2.228;2022-07-25T00:57:40;0.70;;;0.60;;
68657;SDS011;55639;53.480;-2.228;2022-07-25T01:00:06;2.13;;;0.95;;
68657;SDS011;55639;53.480;-2.228;2022-07-25T01:02:34;1.42;;;1.13;;
68657;SDS011;55639;53.480;-2.228;2022-07-25T01:05:00;0.80;;;0.80;;
68657;SDS011;55639;53.480;-2.228;2022-07-25T01:07:27;1.35;;;1.00;;
68657;SDS011;55639;53.480;-2.228;2022-07-25T01:09:53;1.40;;;0.90;;
68657;SDS011;55639;53.480;-2.228;2022-07-25T01:12:20;0.98;;;0.88;;
68657;SDS011;55639;53.480;-2.228;2022-07-25T01:14:45;1.15;;;0.90;;
68657;SDS011;55639;53.480;-2.228;2022-07-25T01:17:11;1.80;;;1.00;;
68657;SDS011;55639;53.480;-2.228;2022-07-25T01:19:37;1.27;;;0.90;;
68657;SDS011;55639;53.480;-2.228;2022-07-25T01:22:03;1.38;;;0.93;;
68657;SDS011;55639;53.480;-2.228;2022-07-25T01:24:28;0.75;;;0.75;;
68657;SDS011;55639;53.480;-2.228;2022-07-25T01:26:54;1.52;;;0.95;;
68657;SDS011;55639;53.480;-2.228;2022-07-25T01:29:20;0.88;;;0.70;;
68657;SDS011;55639;53.480;-2.228;2022-07-25T01:31:46;1.27;;;0.68;;
68657;SDS011;55639;53.480;-2.228;2022-07-25T01:34:12;0.93;;;0.85;;
68657;SDS011;55639;53.480;-2.228;2022-07-25T01:36:37;1.30;;;0.88;;
68657;SDS011;55639;53.480;-2.228;2022-07-25T01:39:03;0.93;;;0.80;;
68657;SDS011;55639;53.480;-2.228;2022-07-25T01:41:29;1.52;;;0.93;;
68657;SDS011;55639;53.480;-2.228;2022-07-25T01:43:54;1.00;;;0.90;;
68657;SDS011;55639;53.480;-2.228;2022-07-25T01:46:20;0.82;;;0.82;;
68657;SDS011;55639;53.480;-2.228;2022-07-25T01:48:46;1.27;;;0.85;;
68657;SDS011;55639;53.480;-2.228;2022-07-25T01:51:11;1.50;;;0.88;;
68657;SDS011;55639;53.480;-2.228;2022-07-25T01:53:37;1.58;;;0.90;;
68657;SDS011;55639;53.480;-2.228;2022-07-25T01:56:04;2.08;;;1.00;;
68657;SDS011;55639;53.480;-2.228;2022-07-25T01:58:30;1.35;;;0.95;;
68657;SDS011;55639;53.480;-2.228;2022-07-25T02:00:56;1.27;;;0.80;;
68657;SDS011;55639;53.480;-2.228;2022-07-25T02:03:21;1.20;;;1.10;;
68657;SDS011;55639;53.480;-2.228;2022-07-25T02:05:53;1.58;;;0.90;;
68657;SDS011;55639;53.480;-2.228;2022-07-25T02:08:20;1.27;;;0.90;;
68657;SDS011;55639;53.480;-2.228;2022-07-25T02:10:46;1.02;;;0.80;;
68657;SDS011;55639;53.480;-2.228;2022-07-25T02:13:11;1.48;;;0.98;;
68657;SDS011;55639;53.480;-2.228;2022-07-25T02:15:37;1.58;;;0.95;;
68657;SDS011;55639;53.480;-2.228;2022-07-25T02:18:03;1.55;;;0.88;;
68657;SDS011;55639;53.480;-2.228;2022-07-25T02:20:28;1.50;;;0.90;;
68657;SDS011;55639;53.480;-2.228;2022-07-25T02:22:54;2.15;;;1.00;;
68657;SDS011;55639;53.480;-2.228;2022-07-25T02:25:20;1.23;;;0.80;;
68657;SDS011;55639;53.480;-2.228;2022-07-25T02:27:45;1.23;;;0.90;;
68657;SDS011;55639;53.480;-2.228;2022-07-25T02:30:11;1.45;;;1.13;;
68657;SDS011;55639;53.480;-2.228;2022-07-25T02:32:37;1.02;;;0.80;;
68657;SDS011;55639;53.480;-2.228;2022-07-25T02:35:03;1.90;;;1.00;;
68657;SDS011;55639;53.480;-2.228;2022-07-25T02:37:30;1.55;;;1.13;;
68657;SDS011;55639;53.480;-2.228;2022-07-25T02:39:56;1.55;;;0.98;;
68657;SDS011;55639;53.480;-2.228;2022-07-25T02:42:21;1.33;;;0.98;;
68657;SDS011;55639;53.480;-2.228;2022-07-25T02:44:47;1.20;;;1.00;;
68657;SDS011;55639;53.480;-2.228;2022-07-25T02:47:12;1.15;;;1.00;;
68657;SDS011;55639;53.480;-2.228;2022-07-25T02:49:38;0.80;;;0.80;;
68657;SDS011;55639;53.480;-2.228;2022-07-25T02:52:04;1.88;;;1.23;;
68657;SDS011;55639;53.480;-2.228;2022-07-25T02:54:29;1.17;;;0.88;;
68657;SDS011;55639;53.480;-2.228;2022-07-25T02:56:55;1.40;;;1.00;;
68657;SDS011;55639;53.480;-2.228;2022-07-25T02:59:21;2.35;;;1.35;;
68657;SDS011;55639;53.480;-2.228;2022-07-25T03:01:46;1.30;;;1.02;;
68657;SDS011;55639;53.480;-2.228;2022-07-25T03:04:12;1.10;;;1.00;;
68657;SDS011;55639;53.480;-2.228;2022-07-25T03:06:37;1.33;;;0.90;;
68657;SDS011;55639;53.480;-2.228;2022-07-25T03:09:03;1.67;;;0.77;;
68657;SDS011;55639;53.480;-2.228;2022-07-25T03:11:29;1.30;;;0.90;;
68657;SDS011;55639;53.480;-2.228;2022-07-25T03:13:54;1.15;;;0.90;;
68657;SDS011;55639;53.480;-2.228;2022-07-25T03:16:20;0.95;;;0.80;;
68657;SDS011;55639;53.480;-2.228;2022-07-25T03:18:45;1.38;;;0.93;;
68657;SDS011;55639;53.480;-2.228;2022-07-25T03:21:11;1.33;;;0.90;;
68657;SDS011;55639;53.480;-2.228;2022-07-25T03:23:37;1.10;;;0.80;;
68657;SDS011;55639;53.480;-2.228;2022-07-25T03:26:02;2.10;;;0.88;;
68657;SDS011;55639;53.480;-2.228;2022-07-25T03:28:29;0.95;;;0.82;;
68657;SDS011;55639;53.480;-2.228;2022-07-25T03:30:54;1.52;;;0.90;;
68657;SDS011;55639;53.480;-2.228;2022-07-25T03:33:20;1.25;;;0.90;;
68657;SDS011;55639;53.480;-2.228;2022-07-25T03:35:46;1.42;;;0.80;;
68657;SDS011;55639;53.480;-2.228;2022-07-25T03:38:11;2.42;;;0.90;;
68657;SDS011;55639;53.480;-2.228;2022-07-25T03:40:37;0.80;;;0.70;;
68657;SDS011;55639;53.480;-2.228;2022-07-25T03:43:03;0.90;;;0.80;;
68657;SDS011;55639;53.480;-2.228;2022-07-25T03:45:29;0.93;;;0.75;;
68657;SDS011;55639;53.480;-2.228;2022-07-25T03:47:55;1.25;;;1.10;;
68657;SDS011;55639;53.480;-2.228;2022-07-25T03:50:20;1.15;;;0.90;;
68657;SDS011;55639;53.480;-2.228;2022-07-25T03:52:46;1.60;;;0.90;;
68657;SDS011;55639;53.480;-2.228;2022-07-25T03:55:11;1.20;;;1.00;;
68657;SDS011;55639;53.480;-2.228;2022-07-25T03:57:37;0.77;;;0.70;;
68657;SDS011;55639;53.480;-2.228;2022-07-25T04:00:04;1.30;;;0.90;;
68657;SDS011;55639;53.480;-2.228;2022-07-25T04:02:31;1.08;;;0.75;;
68657;SDS011;55639;53.480;-2.228;2022-07-25T04:04:57;0.75;;;0.75;;
68657;SDS011;55639;53.480;-2.228;2022-07-25T04:07:22;1.70;;;0.93;;
68657;SDS011;55639;53.480;-2.228;2022-07-25T04:09:48;1.48;;;0.85;;
68657;SDS011;55639;53.480;-2.228;2022-07-25T04:12:14;0.80;;;0.80;;
68657;SDS011;55639;53.480;-2.228;2022-07-25T04:14:39;2.13;;;1.10;;
68657;SDS011;55639;53.480;-2.228;2022-07-25T04:17:05;1.05;;;0.90;;
68657;SDS011;55639;53.480;-2.228;2022-07-25T04:19:30;1.52;;;0.90;;
68657;SDS011;55639;53.480;-2.228;2022-07-25T04:21:56;0.98;;;0.88;;
68657;SDS011;55639;53.480;-2.228;2022-07-25T04:24:22;0.85;;;0.80;;
68657;SDS011;55639;53.480;-2.228;2022-07-25T04:26:47;1.10;;;0.88;;
68657;SDS011;55639;53.480;-2.228;2022-07-25T04:29:13;1.67;;;0.90;;
68657;SDS011;55639;53.480;-2.228;2022-07-25T04:31:38;1.20;;;0.80;;
68657;SDS011;55639;53.480;-2.228;2022-07-25T04:34:04;1.17;;;0.82;;
68657;SDS011;55639;53.480;-2.228;2022-07-25T04:36:30;1.48;;;0.80;;
68657;SDS011;55639;53.480;-2.228;2022-07-25T04:38:55;1.20;;;0.88;;
68657;SDS011;55639;53.480;-2.228;2022-07-25T04:41:21;1.10;;;0.88;;
68657;SDS011;55639;53.480;-2.228;2022-07-25T04:43:47;0.70;;;0.63;;
68657;SDS011;55639;53.480;-2.228;2022-07-25T04:46:16;1.20;;;0.75;;
68657;SDS011;55639;53.480;-2.228;2022-07-25T04:48:45;0.88;;;0.63;;
68657;SDS011;55639;53.480;-2.228;2022-07-25T04:51:11;1.50;;;0.80;;
68657;SDS011;55639;53.480;-2.228;2022-07-25T04:53:36;1.70;;;0.88;;
68657;SDS011;55639;53.480;-2.228;2022-07-25T04:56:02;1.30;;;0.95;;
68657;SDS011;55639;53.480;-2.228;2022-07-25T04:58:30;1.13;;;0.70;;
68657;SDS011;55639;53.480;-2.228;2022-07-25T05:00:56;1.48;;;0.93;;
68657;SDS011;55639;53.480;-2.228;2022-07-25T05:03:22;0.63;;;0.63;;
68657;SDS011;55639;53.480;-2.228;2022-07-25T05:05:48;1.08;;;0.88;;
68657;SDS011;55639;53.480;-2.228;2022-07-25T05:08:14;0.88;;;0.70;;
68657;SDS011;55639;53.480;-2.228;2022-07-25T05:10:39;1.00;;;0.55;;
68657;SDS011;55639;53.480;-2.228;2022-07-25T05:13:05;1.67;;;0.73;;
68657;SDS011;55639;53.480;-2.228;2022-07-25T05:15:30;1.10;;;0.70;;
68657;SDS011;55639;53.480;-2.228;2022-07-25T05:17:56;1.08;;;0.75;;
68657;SDS011;55639;53.480;-2.228;2022-07-25T05:20:22;0.57;;;0.50;;
68657;SDS011;55639;53.480;-2.228;2022-07-25T05:22:47;1.30;;;0.88;;
68657;SDS011;55639;53.480;-2.228;2022-07-25T05:25:13;0.73;;;0.70;;
68657;SDS011;55639;53.480;-2.228;2022-07-25T05:27:39;0.95;;;0.60;;
68657;SDS011;55639;53.480;-2.228;2022-07-25T05:30:05;1.20;;;0.65;;
68657;SDS011;55639;53.480;-2.228;2022-07-25T05:32:33;1.65;;;0.75;;
68657;SDS011;55639;53.480;-2.228;2022-07-25T05:34:58;1.08;;;0.70;;
68657;SDS011;55639;53.480;-2.228;2022-07-25T05:37:24;1.05;;;0.80;;
68657;SDS011;55639;53.480;-2.228;2022-07-25T05:39:50;0.80;;;0.80;;
68657;SDS011;55639;53.480;-2.228;2022-07-25T05:42:15;1.77;;;0.65;;
68657;SDS011;55639;53.480;-2.228;2022-07-25T05:44:41;1.45;;;0.65;;
68657;SDS011;55639;53.480;-2.228;2022-07-25T05:47:09;1.23;;;0.73;;
68657;SDS011;55639;53.480;-2.228;2022-07-25T05:49:36;0.65;;;0.65;;
68657;SDS011;55639;53.480;-2.228;2022-07-25T05:52:02;1.50;;;0.70;;
68657;SDS011;55639;53.480;-2.228;2022-07-25T05:54:28;0.70;;;0.60;;
68657;SDS011;55639;53.480;-2.228;2022-07-25T05:56:54;1.02;;;0.70;;
68657;SDS011;55639;53.480;-2.228;2022-07-25T05:59:20;1.15;;;0.50;;
68657;SDS011;55639;53.480;-2.228;2022-07-25T06:01:45;0.60;;;0.50;;
68657;SDS011;55639;53.480;-2.228;2022-07-25T06:04:11;0.60;;;0.50;;
68657;SDS011;55639;53.480;-2.228;2022-07-25T06:06:37;1.13;;;0.70;;
68657;SDS011;55639;53.480;-2.228;2022-07-25T06:09:02;1.42;;;0.70;;
68657;SDS011;55639;53.480;-2.228;2022-07-25T06:11:28;0.63;;;0.60;;
68657;SDS011;55639;53.480;-2.228;2022-07-25T06:13:55;0.70;;;0.60;;
68657;SDS011;55639;53.480;-2.228;2022-07-25T06:16:21;0.77;;;0.45;;
68657;SDS011;55639;53.480;-2.228;2022-07-25T06:18:47;0.75;;;0.55;;
68657;SDS011;55639;53.480;-2.228;2022-07-25T06:21:13;1.23;;;0.80;;
68657;SDS011;55639;53.480;-2.228;2022-07-25T06:23:38;0.88;;;0.70;;
68657;SDS011;55639;53.480;-2.228;2022-07-25T06:26:07;0.73;;;0.60;;
68657;SDS011;55639;53.480;-2.228;2022-07-25T06:28:34;0.55;;;0.55;;
68657;SDS011;55639;53.480;-2.228;2022-07-25T06:31:00;1.00;;;0.60;;
68657;SDS011;55639;53.480;-2.228;2022-07-25T06:33:26;1.10;;;0.50;;
68657;SDS011;55639;53.480;-2.228;2022-07-25T06:35:52;0.57;;;0.50;;
68657;SDS011;55639;53.480;-2.228;2022-07-25T06:38:17;0.70;;;0.60;;
68657;SDS011;55639;53.480;-2.228;2022-07-25T06:40:43;0.40;;;0.40;;
68657;SDS011;55639;53.480;-2.228;2022-07-25T06:43:09;0.70;;;0.60;;
68657;SDS011;55639;53.480;-2.228;2022-07-25T06:45:35;0.35;;;0.35;;
68657;SDS011;55639;53.480;-2.228;2022-07-25T06:48:00;0.70;;;0.60;;
68657;SDS011;55639;53.480;-2.228;2022-07-25T06:50:26;0.70;;;0.50;;
68657;SDS011;55639;53.480;-2.228;2022-07-25T06:52:52;0.70;;;0.45;;
68657;SDS011;55639;53.480;-2.228;2022-07-25T06:55:19;0.68;;;0.50;;
68657;SDS011;55639;53.480;-2.228;2022-07-25T06:57:45;0.77;;;0.47;;
68657;SDS011;55639;53.480;-2.228;2022-07-25T07:00:11;0.90;;;0.60;;
68657;SDS011;55639;53.480;-2.228;2022-07-25T07:02:48;0.52;;;0.40;;
68657;SDS011;55639;53.480;-2.228;2022-07-25T07:05:19;1.33;;;0.60;;
68657;SDS011;55639;53.480;-2.228;2022-07-25T07:07:46;0.90;;;0.45;;
68657;SDS011;55639;53.480;-2.228;2022-07-25T07:10:11;0.50;;;0.47;;
68657;SDS011;55639;53.480;-2.228;2022-07-25T07:12:37;0.73;;;0.50;;
68657;SDS011;55639;53.480;-2.228;2022-07-25T07:15:03;0.90;;;0.60;;
68657;SDS011;55639;53.480;-2.228;2022-07-25T07:17:29;0.85;;;0.70;;
68657;SDS011;55639;53.480;-2.228;2022-07-25T07:19:54;0.57;;;0.52;;
68657;SDS011;55639;53.480;-2.228;2022-07-25T07:22:20;0.75;;;0.50;;
68657;SDS011;55639;53.480;-2.228;2022-07-25T07:24:46;0.50;;;0.50;;
68657;SDS011;55639;53.480;-2.228;2022-07-25T07:27:11;0.52;;;0.40;;
68657;SDS011;55639;53.480;-2.228;2022-07-25T07:29:37;0.68;;;0.60;;
68657;SDS011;55639;53.480;-2.228;2022-07-25T07:32:03;0.60;;;0.57;;
68657;SDS011;55639;53.480;-2.228;2022-07-25T07:34:28;0.95;;;0.60;;
68657;SDS011;55639;53.480;-2.228;2022-07-25T07:36:54;0.70;;;0.50;;
68657;SDS011;55639;53.480;-2.228;2022-07-25T07:39:20;0.60;;;0.40;;
68657;SDS011;55639;53.480;-2.228;2022-07-25T07:41:45;0.93;;;0.50;;
68657;SDS011;55639;53.480;-2.228;2022-07-25T07:44:11;0.63;;;0.60;;
68657;SDS011;55639;53.480;-2.228;2022-07-25T07:46:37;0.50;;;0.43;;
68657;SDS011;55639;53.480;-2.228;2022-07-25T07:49:02;0.80;;;0.60;;
68657;SDS011;55639;53.480;-2.228;2022-07-25T07:51:28;0.95;;;0.57;;
68657;SDS011;55639;53.480;-2.228;2022-07-25T07:53:53;0.55;;;0.55;;
68657;SDS011;55639;53.480;-2.228;2022-07-25T07:56:38;0.65;;;0.50;;
68657;SDS011;55639;53.480;-2.228;2022-07-25T07:59:03;0.60;;;0.40;;
68657;SDS011;55639;53.480;-2.228;2022-07-25T08:01:29;0.55;;;0.40;;
68657;SDS011;55639;53.480;-2.228;2022-07-25T08:03:55;1.00;;;0.50;;
68657;SDS011;55639;53.480;-2.228;2022-07-25T08:06:21;0.52;;;0.50;;
68657;SDS011;55639;53.480;-2.228;2022-07-25T08:08:47;1.40;;;0.68;;
68657;SDS011;55639;53.480;-2.228;2022-07-25T08:11:13;0.90;;;0.40;;
68657;SDS011;55639;53.480;-2.228;2022-07-25T08:13:38;0.60;;;0.55;;
68657;SDS011;55639;53.480;-2.228;2022-07-25T08:16:04;1.02;;;0.50;;
68657;SDS011;55639;53.480;-2.228;2022-07-25T08:18:31;1.50;;;0.60;;
68657;SDS011;55639;53.480;-2.228;2022-07-25T08:20:58;0.75;;;0.45;;
68657;SDS011;55639;53.480;-2.228;2022-07-25T08:23:26;0.77;;;0.50;;
68657;SDS011;55639;53.480;-2.228;2022-07-25T08:25:52;0.77;;;0.57;;
68657;SDS011;55639;53.480;-2.228;2022-07-25T08:28:18;0.65;;;0.60;;
68657;SDS011;55639;53.480;-2.228;2022-07-25T08:30:44;1.13;;;0.50;;
68657;SDS011;55639;53.480;-2.228;2022-07-25T08:33:11;0.70;;;0.50;;
68657;SDS011;55639;53.480;-2.228;2022-07-25T08:35:38;0.75;;;0.50;;
68657;SDS011;55639;53.480;-2.228;2022-07-25T08:38:05;0.50;;;0.50;;
68657;SDS011;55639;53.480;-2.228;2022-07-25T08:40:32;1.13;;;0.82;;
68657;SDS011;55639;53.480;-2.228;2022-07-25T08:42:58;0.90;;;0.50;;
68657;SDS011;55639;53.480;-2.228;2022-07-25T08:45:25;0.63;;;0.60;;
68657;SDS011;55639;53.480;-2.228;2022-07-25T08:47:52;1.08;;;0.80;;
68657;SDS011;55639;53.480;-2.228;2022-07-25T08:50:20;0.90;;;0.70;;
68657;SDS011;55639;53.480;-2.228;2022-07-25T08:52:48;0.88;;;0.60;;
68657;SDS011;55639;53.480;-2.228;2022-07-25T08:55:16;0.80;;;0.70;;
68657;SDS011;55639;53.480;-2.228;2022-07-25T08:57:46;0.88;;;0.60;;
68657;SDS011;55639;53.480;-2.228;2022-07-25T09:00:21;1.23;;;0.80;;
68657;SDS011;55639;53.480;-2.228;2022-07-25T09:02:52;0.90;;;0.80;;
68657;SDS011;55639;53.480;-2.228;2022-07-25T09:05:26;1.30;;;0.70;;
68657;SDS011;55639;53.480;-2.228;2022-07-25T09:07:52;2.70;;;0.75;;
68657;SDS011;55639;53.480;-2.228;2022-07-25T09:12:50;1.42;;;0.73;;
68657;SDS011;55639;53.480;-2.228;2022-07-25T09:17:51;0.77;;;0.70;;
68657;SDS011;55639;53.480;-2.228;2022-07-25T09:20:17;1.17;;;0.80;;
68657;SDS011;55639;53.480;-2.228;2022-07-25T09:22:44;1.27;;;0.73;;
68657;SDS011;55639;53.480;-2.228;2022-07-25T09:25:25;1.13;;;0.90;;
68657;SDS011;55639;53.480;-2.228;2022-07-25T09:28:16;1.55;;;0.85;;
68657;SDS011;55639;53.480;-2.228;2022-07-25T09:30:58;1.00;;;0.90;;
68657;SDS011;55639;53.480;-2.228;2022-07-25T09:33:26;1.08;;;0.80;;
68657;SDS011;55639;53.480;-2.228;2022-07-25T09:35:52;1.75;;;0.93;;
68657;SDS011;55639;53.480;-2.228;2022-07-25T09:38:20;1.67;;;0.90;;
68657;SDS011;55639;53.480;-2.228;2022-07-25T09:40:53;1.13;;;0.82;;
68657;SDS011;55639;53.480;-2.228;2022-07-25T09:43:38;0.93;;;0.80;;
68657;SDS011;55639;53.480;-2.228;2022-07-25T09:46:04;1.08;;;0.80;;
68657;SDS011;55639;53.480;-2.228;2022-07-25T09:48:31;1.42;;;0.90;;
68657;SDS011;55639;53.480;-2.228;2022-07-25T09:50:58;2.60;;;1.10;;
68657;SDS011;55639;53.480;-2.228;2022-07-25T09:53:24;1.05;;;0.80;;
68657;SDS011;55639;53.480;-2.228;2022-07-25T09:55:50;1.40;;;1.00;;
68657;SDS011;55639;53.480;-2.228;2022-07-25T09:58:21;1.55;;;0.82;;
68657;SDS011;55639;53.480;-2.228;2022-07-25T10:00:47;1.20;;;1.05;;
68657;SDS011;55639;53.480;-2.228;2022-07-25T10:06:06;1.50;;;1.02;;
68657;SDS011;55639;53.480;-2.228;2022-07-25T10:08:40;1.08;;;0.95;;
68657;SDS011;55639;53.480;-2.228;2022-07-25T10:11:20;1.08;;;0.80;;
68657;SDS011;55639;53.480;-2.228;2022-07-25T10:13:47;2.28;;;0.93;;
68657;SDS011;55639;53.480;-2.228;2022-07-25T10:16:17;1.30;;;0.80;;
68657;SDS011;55639;53.480;-2.228;2022-07-25T10:18:51;1.08;;;0.80;;
68657;SDS011;55639;53.480;-2.228;2022-07-25T10:21:19;1.00;;;0.90;;
68657;SDS011;55639;53.480;-2.228;2022-07-25T10:23:56;1.10;;;0.70;;
68657;SDS011;55639;53.480;-2.228;2022-07-25T10:26:26;0.93;;;0.70;;
68657;SDS011;55639;53.480;-2.228;2022-07-25T10:28:52;1.48;;;1.00;;
68657;SDS011;55639;53.480;-2.228;2022-07-25T10:31:41;1.05;;;0.80;;
68657;SDS011;55639;53.480;-2.228;2022-07-25T10:34:08;1.30;;;0.80;;
68657;SDS011;55639;53.480;-2.228;2022-07-25T10:36:47;1.40;;;0.90;;
68657;SDS011;55639;53.480;-2.228;2022-07-25T10:39:16;1.17;;;0.90;;
68657;SDS011;55639;53.480;-2.228;2022-07-25T10:41:48;1.13;;;0.73;;
68657;SDS011;55639;53.480;-2.228;2022-07-25T10:44:18;1.42;;;1.10;;
68657;SDS011;55639;53.480;-2.228;2022-07-25T10:46:44;1.33;;;0.95;;
68657;SDS011;55639;53.480;-2.228;2022-07-25T10:51:50;1.77;;;1.00;;
68657;SDS011;55639;53.480;-2.228;2022-07-25T10:54:20;1.00;;;0.90;;
68657;SDS011;55639;53.480;-2.228;2022-07-25T10:56:56;1.63;;;1.00;;
68657;SDS011;55639;53.480;-2.228;2022-07-25T10:59:27;1.33;;;1.05;;
68657;SDS011;55639;53.480;-2.228;2022-07-25T11:01:55;1.10;;;0.90;;
68657;SDS011;55639;53.480;-2.228;2022-07-25T11:04:21;1.27;;;0.82;;
68657;SDS011;55639;53.480;-2.228;2022-07-25T11:06:47;1.20;;;0.90;;
68657;SDS011;55639;53.480;-2.228;2022-07-25T11:11:42;1.00;;;0.80;;
68657;SDS011;55639;53.480;-2.228;2022-07-25T11:14:19;1.08;;;0.82;;
68657;SDS011;55639;53.480;-2.228;2022-07-25T11:16:47;1.10;;;0.70;;
68657;SDS011;55639;53.480;-2.228;2022-07-25T11:19:21;1.27;;;0.88;;
68657;SDS011;55639;53.480;-2.228;2022-07-25T11:21:52;1.17;;;0.80;;
68657;SDS011;55639;53.480;-2.228;2022-07-25T11:24:38;1.15;;;1.00;;
68657;SDS011;55639;53.480;-2.228;2022-07-25T11:27:06;1.63;;;0.80;;
68657;SDS011;55639;53.480;-2.228;2022-07-25T11:29:33;1.33;;;0.85;;
68657;SDS011;55639;53.480;-2.228;2022-07-25T11:32:01;1.23;;;0.73;;
68657;SDS011;55639;53.480;-2.228;2022-07-25T11:34:37;0.80;;;0.80;;
68657;SDS011;55639;53.480;-2.228;2022-07-25T11:37:06;1.48;;;1.00;;
68657;SDS011;55639;53.480;-2.228;2022-07-25T11:39:34;1.20;;;0.85;;
68657;SDS011;55639;53.480;-2.228;2022-07-25T11:47:07;2.03;;;0.90;;
68657;SDS011;55639;53.480;-2.228;2022-07-25T11:49:45;0.82;;;0.80;;
68657;SDS011;55639;53.480;-2.228;2022-07-25T11:52:21;1.55;;;1.00;;
68657;SDS011;55639;53.480;-2.228;2022-07-25T11:57:27;1.75;;;0.80;;
68657;SDS011;55639;53.480;-2.228;2022-07-25T11:59:55;1.52;;;1.10;;
68657;SDS011;55639;53.480;-2.228;2022-07-25T12:02:39;0.88;;;0.70;;
68657;SDS011;55639;53.480;-2.228;2022-07-25T12:05:06;1.15;;;0.70;;
68657;SDS011;55639;53.480;-2.228;2022-07-25T12:07:37;1.35;;;0.80;;
68657;SDS011;55639;53.480;-2.228;2022-07-25T12:10:09;1.45;;;0.90;;
68657;SDS011;55639;53.480;-2.228;2022-07-25T12:15:08;0.93;;;0.80;;
68657;SDS011;55639;53.480;-2.228;2022-07-25T12:17:35;1.15;;;0.93;;
68657;SDS011;55639;53.480;-2.228;2022-07-25T12:20:01;0.95;;;0.75;;
68657;SDS011;55639;53.480;-2.228;2022-07-25T12:22:27;1.58;;;0.70;;
68657;SDS011;55639;53.480;-2.228;2022-07-25T12:24:52;1.83;;;0.90;;
68657;SDS011;55639;53.480;-2.228;2022-07-25T12:27:18;1.63;;;0.80;;
68657;SDS011;55639;53.480;-2.228;2022-07-25T12:29:43;1.45;;;0.70;;
68657;SDS011;55639;53.480;-2.228;2022-07-25T12:32:09;0.90;;;0.80;;
68657;SDS011;55639;53.480;-2.228;2022-07-25T12:34:35;1.33;;;0.90;;
68657;SDS011;55639;53.480;-2.228;2022-07-25T12:37:00;1.02;;;0.70;;
68657;SDS011;55639;53.480;-2.228;2022-07-25T12:39:26;2.40;;;1.20;;
68657;SDS011;55639;53.480;-2.228;2022-07-25T12:41:52;1.63;;;0.90;;
68657;SDS011;55639;53.480;-2.228;2022-07-25T12:44:18;0.90;;;0.80;;
68657;SDS011;55639;53.480;-2.228;2022-07-25T12:46:43;2.15;;;1.00;;
68657;SDS011;55639;53.480;-2.228;2022-07-25T12:49:09;1.23;;;0.90;;
68657;SDS011;55639;53.480;-2.228;2022-07-25T12:51:35;1.02;;;0.77;;
68657;SDS011;55639;53.480;-2.228;2022-07-25T12:54:01;1.70;;;1.10;;
68657;SDS011;55639;53.480;-2.228;2022-07-25T12:56:27;1.23;;;0.80;;
68657;SDS011;55639;53.480;-2.228;2022-07-25T12:58:52;2.47;;;0.90;;
68657;SDS011;55639;53.480;-2.228;2022-07-25T13:01:19;1.60;;;0.80;;
68657;SDS011;55639;53.480;-2.228;2022-07-25T13:03:45;1.10;;;0.77;;
68657;SDS011;55639;53.480;-2.228;2022-07-25T13:06:11;2.33;;;1.30;;
68657;SDS011;55639;53.480;-2.228;2022-07-25T13:08:37;1.20;;;0.98;;
68657;SDS011;55639;53.480;-2.228;2022-07-25T13:11:02;1.25;;;0.70;;
68657;SDS011;55639;53.480;-2.228;2022-07-25T13:13:28;2.03;;;1.00;;
68657;SDS011;55639;53.480;-2.228;2022-07-25T13:15:54;2.50;;;1.10;;
68657;SDS011;55639;53.480;-2.228;2022-07-25T13:18:19;2.53;;;0.98;;
68657;SDS011;55639;53.480;-2.228;2022-07-25T13:20:45;1.60;;;0.77;;
68657;SDS011;55639;53.480;-2.228;2022-07-25T13:23:11;1.50;;;0.90;;
68657;SDS011;55639;53.480;-2.228;2022-07-25T13:25:37;1.58;;;0.90;;
68657;SDS011;55639;53.480;-2.228;2022-07-25T13:28:03;1.38;;;0.55;;
68657;SDS011;55639;53.480;-2.228;2022-07-25T13:30:29;1.10;;;0.80;;
68657;SDS011;55639;53.480;-2.228;2022-07-25T13:32:54;2.33;;;0.93;;
68657;SDS011;55639;53.480;-2.228;2022-07-25T13:35:20;1.17;;;0.90;;
68657;SDS011;55639;53.480;-2.228;2022-07-25T13:37:46;1.30;;;0.80;;
68657;SDS011;55639;53.480;-2.228;2022-07-25T13:40:11;1.35;;;0.60;;
68657;SDS011;55639;53.480;-2.228;2022-07-25T13:42:37;2.08;;;1.00;;
68657;SDS011;55639;53.480;-2.228;2022-07-25T13:45:04;1.85;;;0.77;;
68657;SDS011;55639;53.480;-2.228;2022-07-25T13:47:31;1.00;;;0.60;;
68657;SDS011;55639;53.480;-2.228;2022-07-25T13:49:59;1.20;;;0.70;;
68657;SDS011;55639;53.480;-2.228;2022-07-25T13:52:24;1.60;;;0.70;;
68657;SDS011;55639;53.480;-2.228;2022-07-25T13:54:50;1.73;;;0.80;;
68657;SDS011;55639;53.480;-2.228;2022-07-25T13:57:16;1.08;;;0.68;;
68657;SDS011;55639;53.480;-2.228;2022-07-25T13:59:41;1.23;;;0.50;;
68657;SDS011;55639;53.480;-2.228;2022-07-25T14:02:07;1.55;;;0.82;;
68657;SDS011;55639;53.480;-2.228;2022-07-25T14:04:33;0.95;;;0.85;;
68657;SDS011;55639;53.480;-2.228;2022-07-25T14:06:59;1.35;;;0.80;;
68657;SDS011;55639;53.480;-2.228;2022-07-25T14:09:24;1.48;;;0.60;;
68657;SDS011;55639;53.480;-2.228;2022-07-25T14:11:50;1.15;;;0.60;;
68657;SDS011;55639;53.480;-2.228;2022-07-25T14:14:16;1.10;;;0.60;;
68657;SDS011;55639;53.480;-2.228;2022-07-25T14:16:42;1.90;;;0.85;;
68657;SDS011;55639;53.480;-2.228;2022-07-25T14:19:08;1.20;;;0.80;;
68657;SDS011;55639;53.480;-2.228;2022-07-25T14:21:34;1.48;;;0.80;;
68657;SDS011;55639;53.480;-2.228;2022-07-25T14:24:00;1.20;;;0.70;;
68657;SDS011;55639;53.480;-2.228;2022-07-25T14:26:26;1.40;;;0.73;;
68657;SDS011;55639;53.480;-2.228;2022-07-25T14:28:53;1.50;;;0.80;;
68657;SDS011;55639;53.480;-2.228;2022-07-25T14:31:19;1.88;;;0.70;;
68657;SDS011;55639;53.480;-2.228;2022-07-25T14:33:45;0.93;;;0.80;;
68657;SDS011;55639;53.480;-2.228;2022-07-25T14:36:11;0.68;;;0.50;;
68657;SDS011;55639;53.480;-2.228;2022-07-25T14:38:37;1.73;;;0.65;;
68657;SDS011;55639;53.480;-2.228;2022-07-25T14:41:03;0.95;;;0.60;;
68657;SDS011;55639;53.480;-2.228;2022-07-25T14:43:29;1.00;;;0.60;;
68657;SDS011;55639;53.480;-2.228;2022-07-25T14:45:55;1.58;;;0.80;;
68657;SDS011;55639;53.480;-2.228;2022-07-25T14:48:20;1.58;;;0.68;;
68657;SDS011;55639;53.480;-2.228;2022-07-25T14:50:46;1.13;;;0.70;;
68657;SDS011;55639;53.480;-2.228;2022-07-25T14:53:12;0.90;;;0.70;;
68657;SDS011;55639;53.480;-2.228;2022-07-25T14:55:38;1.30;;;0.60;;